Time;durP1;ratioP1;P1;durP2;ratioP2;P2;SDS_P1;SDS_P2;PMS_P1;PMS_P2;Temp;Humidity;BMP_temperature;BMP_pressure;BME280_temperature;BME280_humidity;BME280_pressure;Samples;Min_cycle;Max_cycle;Signal;HPM_P1;HPM_P2
2023/05/29 00:00:06;;;;;;;13.20;2.80;;;10.80;99.90;;;;;;5090677;28;20075;-58
2023/05/29 00:02:32;;;;;;;11.95;2.40;;;10.70;99.90;;;;;;5094679;28;20044;-59
2023/05/29 00:04:58;;;;;;;10.27;2.95;;;10.80;99.90;;;;;;5095362;28;20474;-59
2023/05/29 00:07:24;;;;;;;18.35;3.45;;;10.80;99.90;;;;;;5095694;28;20093;-58
2023/05/29 00:09:49;;;;;;;14.48;3.08;;;10.70;99.90;;;;;;5095214;28;20040;-58
2023/05/29 00:12:15;;;;;;;19.10;3.22;;;10.70;99.90;;;;;;5095632;28;20048;-59
2023/05/29 00:14:40;;;;;;;13.05;2.85;;;10.70;99.90;;;;;;5095254;28;20107;-58
2023/05/29 00:17:06;;;;;;;15.52;3.13;;;10.80;99.90;;;;;;5095395;28;20046;-59
2023/05/29 00:19:32;;;;;;;16.60;3.25;;;10.80;99.90;;;;;;5094137;28;20138;-59
2023/05/29 00:21:57;;;;;;;16.83;3.55;;;10.70;99.90;;;;;;5095455;28;20119;-58
2023/05/29 00:24:23;;;;;;;18.25;2.60;;;10.80;99.90;;;;;;5095239;28;20051;-59
2023/05/29 00:26:49;;;;;;;14.32;3.45;;;10.80;99.90;;;;;;5094668;28;20036;-57
2023/05/29 00:29:15;;;;;;;13.10;3.63;;;10.70;99.90;;;;;;5093717;28;20055;-58
2023/05/29 00:31:40;;;;;;;17.05;3.15;;;10.60;99.90;;;;;;5094677;28;20040;-58
2023/05/29 00:34:06;;;;;;;20.20;4.13;;;10.60;99.90;;;;;;5094799;28;20029;-59
2023/05/29 00:36:33;;;;;;;15.90;3.53;;;10.60;99.90;;;;;;5094746;28;20406;-59
2023/05/29 00:38:58;;;;;;;14.13;2.70;;;10.60;99.90;;;;;;5094673;28;20036;-58
2023/05/29 00:41:24;;;;;;;12.15;2.60;;;10.60;99.90;;;;;;5094643;28;20418;-59
2023/05/29 00:43:50;;;;;;;17.55;2.70;;;10.50;99.90;;;;;;5094560;28;20059;-59
2023/05/29 00:46:16;;;;;;;18.52;4.07;;;10.60;99.90;;;;;;5094393;28;20052;-58
2023/05/29 00:48:42;;;;;;;16.92;2.70;;;10.50;99.90;;;;;;5094786;28;20101;-59
2023/05/29 00:51:10;;;;;;;17.45;2.97;;;10.50;99.90;;;;;;5094598;28;20032;-57
2023/05/29 00:53:37;;;;;;;12.32;3.03;;;10.50;99.90;;;;;;5094520;28;20084;-57
2023/05/29 00:56:04;;;;;;;20.88;3.33;;;10.50;99.90;;;;;;5094637;28;20067;-58
2023/05/29 00:58:30;;;;;;;18.77;2.95;;;10.40;99.90;;;;;;5094577;28;20050;-58
2023/05/29 01:00:57;;;;;;;18.35;3.85;;;10.50;99.90;;;;;;5094324;28;20390;-59
2023/05/29 01:03:23;;;;;;;14.60;3.53;;;10.40;99.90;;;;;;5094276;28;20486;-59
2023/05/29 01:05:49;;;;;;;15.27;3.42;;;10.40;99.90;;;;;;5094164;28;20044;-58
2023/05/29 01:08:15;;;;;;;18.67;3.55;;;10.40;99.90;;;;;;5094170;28;20083;-59
2023/05/29 01:10:42;;;;;;;19.98;3.83;;;10.40;99.90;;;;;;5094209;28;20116;-59
2023/05/29 01:13:19;;;;;;;13.65;2.90;;;10.40;99.90;;;;;;5093859;28;20051;-58
2023/05/29 01:16:06;;;;;;;12.48;2.58;;;10.40;99.90;;;;;;5094177;28;20044;-58
2023/05/29 01:19:01;;;;;;;12.63;3.25;;;10.30;99.90;;;;;;5099769;27;20044;-58
2023/05/29 01:22:11;;;;;;;15.05;2.85;;;10.30;99.90;;;;;;5093809;28;20524;-58
2023/05/29 01:24:52;;;;;;;17.73;3.28;;;10.30;99.90;;;;;;5031328;28;20107;-58
2023/05/29 01:27:21;;;;;;;15.45;3.33;;;10.30;99.90;;;;;;5031431;28;20124;-58
2023/05/29 01:29:49;;;;;;;15.45;2.67;;;10.30;99.90;;;;;;5022669;28;20038;-58
2023/05/29 01:32:15;;;;;;;16.23;3.30;;;10.30;99.90;;;;;;5031267;28;20084;-59
2023/05/29 01:34:40;;;;;;;15.15;3.65;;;10.20;99.90;;;;;;5031211;28;20041;-58
2023/05/29 01:37:06;;;;;;;16.05;3.92;;;10.30;99.90;;;;;;5014107;28;20046;-57
2023/05/29 01:39:33;;;;;;;17.23;3.15;;;10.20;99.90;;;;;;5014833;28;20404;-57
2023/05/29 01:42:00;;;;;;;13.27;3.17;;;10.20;99.90;;;;;;5031111;28;20037;-59
2023/05/29 01:44:26;;;;;;;15.63;3.38;;;10.20;99.90;;;;;;5030981;28;20084;-58
2023/05/29 01:46:53;;;;;;;23.23;3.25;;;10.30;99.90;;;;;;5030894;28;20069;-57
2023/05/29 01:49:19;;;;;;;14.48;2.70;;;10.30;99.90;;;;;;5030848;28;20495;-58
2023/05/29 01:51:44;;;;;;;20.63;3.38;;;10.30;99.90;;;;;;5031075;28;20087;-58
2023/05/29 01:54:10;;;;;;;16.83;3.05;;;10.40;99.90;;;;;;5030740;28;20045;-58
2023/05/29 01:56:36;;;;;;;17.52;4.38;;;10.40;99.90;;;;;;5030966;28;20033;-58
2023/05/29 01:59:03;;;;;;;18.15;3.60;;;10.30;99.90;;;;;;5078073;28;20044;-59
2023/05/29 02:01:29;;;;;;;18.67;3.75;;;10.40;99.90;;;;;;5093204;28;20040;-59
2023/05/29 02:03:54;;;;;;;13.02;3.20;;;10.40;99.90;;;;;;5126198;27;20371;-58
2023/05/29 02:06:20;;;;;;;15.52;2.92;;;10.50;99.90;;;;;;5093117;28;20625;-58
2023/05/29 02:08:46;;;;;;;18.00;4.65;;;10.40;99.90;;;;;;5093451;28;20425;-57
2023/05/29 02:11:12;;;;;;;14.63;3.03;;;10.50;99.90;;;;;;5093117;28;20479;-59
2023/05/29 02:13:38;;;;;;;20.63;2.92;;;10.40;99.90;;;;;;5093149;28;20040;-58
2023/05/29 02:16:04;;;;;;;13.82;3.45;;;10.40;99.90;;;;;;5125830;27;20032;-59
2023/05/29 02:18:29;;;;;;;16.50;3.53;;;10.40;99.90;;;;;;5093020;28;20109;-58
2023/05/29 02:20:55;;;;;;;13.57;2.90;;;10.40;99.90;;;;;;5093225;28;20127;-59
2023/05/29 02:23:21;;;;;;;14.35;2.92;;;10.50;99.90;;;;;;5092853;28;20035;-58
2023/05/29 02:25:46;;;;;;;16.55;3.80;;;10.40;99.90;;;;;;5092836;28;20050;-59
2023/05/29 02:28:12;;;;;;;19.35;3.58;;;10.50;99.90;;;;;;5092818;28;20486;-58
2023/05/29 02:30:38;;;;;;;16.88;3.10;;;10.30;99.90;;;;;;5092803;28;20486;-58
2023/05/29 02:33:04;;;;;;;21.85;3.58;;;10.30;99.90;;;;;;5093150;28;20113;-58
2023/05/29 02:35:30;;;;;;;20.02;4.28;;;10.30;99.90;;;;;;5092633;28;20435;-58
2023/05/29 02:37:55;;;;;;;13.82;3.55;;;10.30;99.90;;;;;;5092521;28;20036;-58
2023/05/29 02:40:21;;;;;;;17.15;4.45;;;10.40;99.90;;;;;;5092363;28;20051;-56
2023/05/29 02:42:47;;;;;;;19.75;3.95;;;10.40;99.90;;;;;;5092188;28;20474;-58
2023/05/29 02:45:13;;;;;;;17.85;3.15;;;10.20;99.90;;;;;;5092166;28;20047;-56
2023/05/29 02:47:38;;;;;;;15.35;2.97;;;10.30;99.90;;;;;;5091769;28;20051;-57
2023/05/29 02:50:05;;;;;;;13.25;3.10;;;10.30;99.90;;;;;;5091895;28;20043;-57
2023/05/29 02:52:32;;;;;;;23.50;4.03;;;10.20;99.90;;;;;;5124957;28;20040;-56
2023/05/29 02:54:58;;;;;;;15.95;3.42;;;10.10;99.90;;;;;;5091652;28;20071;-56
2023/05/29 02:57:24;;;;;;;14.43;2.90;;;10.20;99.90;;;;;;5089681;28;20481;-57
2023/05/29 02:59:51;;;;;;;20.02;4.65;;;10.20;99.90;;;;;;5085101;28;20055;-57
2023/05/29 03:02:20;;;;;;;11.57;3.08;;;10.30;99.90;;;;;;5091961;28;20119;-57
2023/05/29 03:04:46;;;;;;;14.30;2.75;;;10.30;99.90;;;;;;5091756;28;20052;-57
2023/05/29 03:07:12;;;;;;;14.63;2.97;;;10.40;99.90;;;;;;5091473;28;20466;-57
2023/05/29 03:09:38;;;;;;;17.25;2.78;;;10.40;99.90;;;;;;5091876;28;20044;-55
2023/05/29 03:12:04;;;;;;;20.85;3.45;;;10.40;99.90;;;;;;5124517;28;20089;-55
2023/05/29 03:14:33;;;;;;;13.68;3.60;;;10.40;99.90;;;;;;5091760;28;20032;-55
2023/05/29 03:16:59;;;;;;;14.25;3.50;;;10.50;99.90;;;;;;5090534;28;20075;-56
2023/05/29 03:19:24;;;;;;;15.23;3.08;;;10.50;99.90;;;;;;5091548;28;20067;-56
2023/05/29 03:21:50;;;;;;;16.40;2.97;;;10.60;99.90;;;;;;5091367;28;20048;-56
2023/05/29 03:24:16;;;;;;;13.60;2.75;;;10.50;99.90;;;;;;5091790;28;20042;-56
2023/05/29 03:26:42;;;;;;;13.55;2.75;;;10.50;99.90;;;;;;5091679;28;20073;-56
2023/05/29 03:29:07;;;;;;;14.38;3.17;;;10.50;99.90;;;;;;5091412;28;20046;-56
2023/05/29 03:31:33;;;;;;;15.90;2.53;;;10.50;99.90;;;;;;5091726;28;20032;-56
2023/05/29 03:33:59;;;;;;;19.35;3.25;;;10.50;99.90;;;;;;5091190;28;20035;-57
2023/05/29 03:36:25;;;;;;;15.55;3.55;;;10.60;99.90;;;;;;5091460;28;20081;-56
2023/05/29 03:38:50;;;;;;;13.38;3.05;;;10.50;99.90;;;;;;5091488;28;20363;-56
2023/05/29 03:41:16;;;;;;;20.52;2.95;;;10.60;99.90;;;;;;5091232;28;20478;-57
2023/05/29 03:43:42;;;;;;;18.70;3.45;;;10.60;99.90;;;;;;5091265;28;20036;-56
2023/05/29 03:46:07;;;;;;;15.18;3.53;;;10.70;99.90;;;;;;5123974;28;20051;-57
2023/05/29 03:48:33;;;;;;;17.52;2.85;;;10.70;99.90;;;;;;5091437;28;20059;-56
2023/05/29 03:50:59;;;;;;;20.13;2.92;;;10.70;99.90;;;;;;5091300;28;20036;-55
2023/05/29 03:53:24;;;;;;;14.50;4.00;;;10.70;99.90;;;;;;5091332;28;20058;-56
2023/05/29 03:55:50;;;;;;;11.30;2.40;;;10.70;99.90;;;;;;5094833;28;20107;-57
2023/05/29 03:58:16;;;;;;;16.25;2.97;;;10.70;99.90;;;;;;5094581;28;20054;-57
2023/05/29 04:00:41;;;;;;;10.82;2.75;;;10.70;99.90;;;;;;5093442;28;20036;-57
2023/05/29 04:03:07;;;;;;;17.45;2.97;;;10.80;99.90;;;;;;5094200;28;20119;-57
2023/05/29 04:05:33;;;;;;;13.07;2.45;;;10.80;99.90;;;;;;5094701;28;20058;-57
2023/05/29 04:08:00;;;;;;;12.57;3.28;;;10.70;99.90;;;;;;5094444;28;20039;-56
2023/05/29 04:10:26;;;;;;;18.05;2.78;;;10.70;99.90;;;;;;5094445;28;20500;-56
2023/05/29 04:12:52;;;;;;;17.75;3.10;;;10.70;99.90;;;;;;5094606;28;20032;-55
2023/05/29 04:15:17;;;;;;;13.70;3.17;;;10.70;99.90;;;;;;5094547;28;20064;-57
2023/05/29 04:17:43;;;;;;;14.20;3.00;;;10.80;99.90;;;;;;5094451;28;20032;-57
2023/05/29 04:20:09;;;;;;;16.88;3.08;;;10.70;99.90;;;;;;5094287;28;20113;-57
2023/05/29 04:22:38;;;;;;;14.10;2.60;;;10.70;99.90;;;;;;5094623;28;20111;-57
2023/05/29 04:25:05;;;;;;;19.50;4.20;;;10.70;99.90;;;;;;5094387;28;20036;-56
2023/05/29 04:27:37;;;;;;;16.67;3.38;;;10.80;99.90;;;;;;5094487;28;20032;-56
2023/05/29 04:30:05;;;;;;;14.23;2.85;;;10.80;99.90;;;;;;5094225;28;20121;-56
2023/05/29 04:32:30;;;;;;;18.05;3.55;;;10.90;99.90;;;;;;5090706;28;20481;-55
2023/05/29 04:34:56;;;;;;;13.68;2.72;;;10.80;99.90;;;;;;5094235;28;20123;-55
2023/05/29 04:37:28;;;;;;;17.05;2.60;;;10.80;99.90;;;;;;5094085;28;20482;-56
2023/05/29 04:39:55;;;;;;;16.58;3.08;;;10.80;99.90;;;;;;5094338;28;20048;-56
2023/05/29 04:42:22;;;;;;;17.90;2.92;;;10.80;99.90;;;;;;5126988;27;20043;-56
2023/05/29 04:44:49;;;;;;;16.35;2.95;;;10.80;99.90;;;;;;5093834;28;20044;-57
2023/05/29 04:47:15;;;;;;;13.75;3.20;;;10.80;99.90;;;;;;5093920;28;20055;-57
2023/05/29 04:49:41;;;;;;;16.08;2.92;;;10.90;99.90;;;;;;5093544;28;20048;-56
2023/05/29 04:52:07;;;;;;;16.40;3.40;;;10.90;99.90;;;;;;5093912;28;20040;-56
2023/05/29 04:54:34;;;;;;;19.88;3.20;;;10.90;99.90;;;;;;5093525;28;20386;-56
2023/05/29 04:57:00;;;;;;;17.25;3.03;;;10.90;99.90;;;;;;5093232;28;20089;-56
2023/05/29 04:59:26;;;;;;;13.57;3.05;;;10.90;99.90;;;;;;5093577;28;20076;-56
2023/05/29 05:01:51;;;;;;;11.93;3.20;;;11.00;99.90;;;;;;5092137;28;20082;-56
2023/05/29 05:04:20;;;;;;;15.90;3.60;;;11.10;99.90;;;;;;5078681;28;20041;-56
2023/05/29 05:06:46;;;;;;;14.82;2.90;;;11.10;99.90;;;;;;5085698;28;20130;-55
2023/05/29 05:09:12;;;;;;;14.35;2.85;;;11.20;99.90;;;;;;5093111;28;20132;-56
2023/05/29 05:11:37;;;;;;;13.75;2.60;;;11.30;99.90;;;;;;5093316;28;20047;-56
2023/05/29 05:14:03;;;;;;;17.90;3.00;;;11.30;99.90;;;;;;5093285;28;20032;-56
2023/05/29 05:16:29;;;;;;;18.13;4.47;;;11.30;99.90;;;;;;5093504;28;20112;-57
2023/05/29 05:18:54;;;;;;;14.52;3.90;;;11.40;99.90;;;;;;5093342;28;20040;-57
2023/05/29 05:21:20;;;;;;;17.58;3.33;;;11.50;99.90;;;;;;5088087;28;20089;-57
2023/05/29 05:23:46;;;;;;;12.93;3.30;;;11.50;99.90;;;;;;5123589;27;20039;-56
2023/05/29 05:26:12;;;;;;;13.20;4.03;;;11.60;99.90;;;;;;5093340;28;20492;-56
2023/05/29 05:28:38;;;;;;;12.07;2.85;;;11.50;99.90;;;;;;5093091;28;20162;-56
2023/05/29 05:31:03;;;;;;;20.67;2.90;;;11.60;99.90;;;;;;5092945;28;20063;-55
2023/05/29 05:33:29;;;;;;;17.17;3.45;;;11.60;99.90;;;;;;5092898;28;20051;-56
2023/05/29 05:35:55;;;;;;;11.68;2.85;;;11.70;99.90;;;;;;5081441;28;20064;-56
2023/05/29 05:38:20;;;;;;;15.05;3.20;;;11.80;99.90;;;;;;5085091;28;20046;-57
2023/05/29 05:40:46;;;;;;;19.83;3.33;;;11.80;99.90;;;;;;5092737;28;20367;-56
2023/05/29 05:43:12;;;;;;;20.98;4.03;;;11.80;99.90;;;;;;5092805;28;20044;-57
2023/05/29 05:45:41;;;;;;;17.50;3.67;;;11.90;99.90;;;;;;5092293;28;20078;-56
2023/05/29 05:48:08;;;;;;;19.63;3.47;;;12.00;99.90;;;;;;5092614;28;20040;-56
2023/05/29 05:50:34;;;;;;;24.00;3.13;;;12.00;99.90;;;;;;5092549;28;20103;-56
2023/05/29 05:52:59;;;;;;;24.45;3.83;;;12.00;99.90;;;;;;5091635;28;20089;-56
2023/05/29 05:55:27;;;;;;;17.50;3.45;;;12.10;99.90;;;;;;5088253;28;20116;-56
2023/05/29 05:57:53;;;;;;;13.18;3.78;;;12.20;99.90;;;;;;5092654;28;20093;-56
2023/05/29 06:00:19;;;;;;;14.85;3.70;;;12.20;99.90;;;;;;5092313;28;20408;-57
2023/05/29 06:02:45;;;;;;;12.73;3.35;;;12.20;99.90;;;;;;5092578;28;20036;-56
2023/05/29 06:05:11;;;;;;;15.45;3.53;;;12.20;99.90;;;;;;5091942;28;20064;-56
2023/05/29 06:07:37;;;;;;;24.17;4.03;;;12.30;99.90;;;;;;5092235;28;20496;-56
2023/05/29 06:10:03;;;;;;;15.85;4.22;;;12.30;99.90;;;;;;5083792;28;20471;-56
2023/05/29 06:12:30;;;;;;;21.98;3.65;;;12.30;99.90;;;;;;5088008;28;20094;-56
2023/05/29 06:14:55;;;;;;;19.23;4.05;;;12.40;99.90;;;;;;5092320;28;20044;-56
2023/05/29 06:17:21;;;;;;;21.27;4.30;;;12.40;99.90;;;;;;5124471;27;20032;-55
2023/05/29 06:19:47;;;;;;;17.60;3.42;;;12.50;99.90;;;;;;5092075;28;20436;-56
2023/05/29 06:22:15;;;;;;;21.52;4.68;;;12.60;99.90;;;;;;5082541;28;20040;-55
2023/05/29 06:24:40;;;;;;;22.80;3.88;;;12.60;99.90;;;;;;5087303;28;20074;-56
2023/05/29 06:27:07;;;;;;;20.60;4.68;;;12.60;99.90;;;;;;5091197;28;20075;-55
2023/05/29 06:29:33;;;;;;;18.33;4.00;;;12.60;99.90;;;;;;5092300;28;20040;-56
2023/05/29 06:31:59;;;;;;;16.50;3.58;;;12.70;99.90;;;;;;5092479;28;20774;-57
2023/05/29 06:34:25;;;;;;;18.92;4.28;;;12.70;99.90;;;;;;5092226;28;20039;-56
2023/05/29 06:36:50;;;;;;;16.60;2.95;;;12.80;99.90;;;;;;5091819;28;20032;-57
2023/05/29 06:39:17;;;;;;;19.50;3.92;;;12.80;99.90;;;;;;5091797;28;20028;-57
2023/05/29 06:41:43;;;;;;;22.52;3.67;;;12.90;99.90;;;;;;5085028;28;20076;-57
2023/05/29 06:44:09;;;;;;;20.17;3.50;;;12.90;99.90;;;;;;5089782;28;20148;-56
2023/05/29 06:46:34;;;;;;;18.73;3.60;;;13.00;99.90;;;;;;5089035;28;20584;-56
2023/05/29 06:49:00;;;;;;;18.67;4.43;;;13.10;99.90;;;;;;5091837;28;20375;-56
2023/05/29 06:51:26;;;;;;;15.63;3.92;;;13.10;99.90;;;;;;5092059;28;20044;-57
2023/05/29 06:53:51;;;;;;;17.83;4.22;;;13.10;99.90;;;;;;5091856;28;20133;-56
2023/05/29 06:56:17;;;;;;;20.83;3.63;;;13.10;99.90;;;;;;5091851;28;20374;-56
2023/05/29 06:58:42;;;;;;;23.10;4.38;;;13.20;99.90;;;;;;5091563;28;20508;-57
2023/05/29 07:01:08;;;;;;;16.63;3.47;;;13.10;99.90;;;;;;5091805;28;20034;-56
2023/05/29 07:03:34;;;;;;;19.30;3.70;;;13.20;99.90;;;;;;5091513;28;20532;-57
2023/05/29 07:05:59;;;;;;;23.50;3.95;;;13.20;99.90;;;;;;5090079;28;20119;-56
2023/05/29 07:08:27;;;;;;;16.30;4.18;;;13.20;99.90;;;;;;5084724;28;20048;-57
2023/05/29 07:10:53;;;;;;;18.35;3.65;;;13.30;99.90;;;;;;5091741;28;20039;-57
2023/05/29 07:13:18;;;;;;;15.88;3.80;;;13.40;99.90;;;;;;5091626;28;20485;-57
2023/05/29 07:15:45;;;;;;;21.77;4.50;;;13.50;99.90;;;;;;5091939;28;20588;-56
2023/05/29 07:18:11;;;;;;;28.88;3.97;;;13.60;99.90;;;;;;5091891;28;20101;-57
2023/05/29 07:20:37;;;;;;;13.60;3.13;;;13.80;99.90;;;;;;5091734;28;20436;-56
2023/05/29 07:23:03;;;;;;;18.05;3.45;;;14.00;99.90;;;;;;5091502;28;20040;-56
2023/05/29 07:25:29;;;;;;;23.55;4.20;;;14.20;99.90;;;;;;5091495;28;20047;-56
2023/05/29 07:27:55;;;;;;;27.05;4.40;;;14.30;99.90;;;;;;5092696;28;20039;-55
2023/05/29 07:30:21;;;;;;;19.52;4.53;;;14.40;99.90;;;;;;5095228;28;20032;-57
2023/05/29 07:32:46;;;;;;;21.13;4.55;;;14.30;99.90;;;;;;5093867;28;20093;-57
2023/05/29 07:35:12;;;;;;;22.63;4.15;;;14.40;99.90;;;;;;5095272;28;20028;-58
2023/05/29 07:37:38;;;;;;;25.80;4.90;;;14.30;99.90;;;;;;5095365;28;20032;-57
2023/05/29 07:40:07;;;;;;;17.50;4.13;;;14.40;99.90;;;;;;5095081;28;20040;-58
2023/05/29 07:42:33;;;;;;;22.05;4.57;;;14.40;99.90;;;;;;5127831;27;20044;-57
2023/05/29 07:44:59;;;;;;;23.65;4.13;;;14.60;99.90;;;;;;5087412;28;20433;-56
2023/05/29 07:47:25;;;;;;;22.98;3.97;;;14.70;99.90;;;;;;5091819;28;20201;-57
2023/05/29 07:49:51;;;;;;;16.38;3.42;;;14.80;99.90;;;;;;5095173;28;20040;-56
2023/05/29 07:52:18;;;;;;;18.85;3.55;;;15.00;99.90;;;;;;5095001;28;20051;-56
2023/05/29 07:54:44;;;;;;;19.00;3.78;;;15.00;99.90;;;;;;5085795;28;20028;-57
2023/05/29 07:57:09;;;;;;;16.42;4.03;;;15.10;99.90;;;;;;5087611;28;20043;-57
2023/05/29 07:59:41;;;;;;;18.60;4.00;;;15.10;99.90;;;;;;5094731;28;20408;-56
2023/05/29 08:02:07;;;;;;;20.15;3.38;;;15.10;99.90;;;;;;5094791;28;20051;-58
2023/05/29 08:04:33;;;;;;;17.25;3.47;;;15.10;99.90;;;;;;5094668;28;20024;-57
2023/05/29 08:07:03;;;;;;;22.42;4.30;;;15.10;99.90;;;;;;5094538;28;20470;-56
2023/05/29 08:09:29;;;;;;;17.02;3.70;;;15.20;99.90;;;;;;5093271;28;20089;-56
2023/05/29 08:11:55;;;;;;;19.13;4.47;;;15.20;99.90;;;;;;5094703;28;20057;-57
2023/05/29 08:14:20;;;;;;;25.13;4.35;;;15.40;99.90;;;;;;5094539;28;20036;-58
2023/05/29 08:16:46;;;;;;;16.85;4.90;;;15.40;99.90;;;;;;5094548;28;20067;-57
2023/05/29 08:19:12;;;;;;;20.42;3.58;;;15.70;99.90;;;;;;5084304;28;20045;-57
2023/05/29 08:21:38;;;;;;;17.67;4.22;;;15.90;99.90;;;;;;5092483;28;20032;-57
2023/05/29 08:24:07;;;;;;;13.43;3.47;;;15.80;99.90;;;;;;5094444;28;20097;-57
2023/05/29 08:26:33;;;;;;;19.23;4.13;;;15.70;99.90;;;;;;5094293;28;20398;-57
2023/05/29 08:28:59;;;;;;;20.17;3.65;;;15.70;99.90;;;;;;5090869;28;20041;-58
2023/05/29 08:31:25;;;;;;;27.73;3.95;;;15.70;99.90;;;;;;5088931;28;20032;-56
2023/05/29 08:33:51;;;;;;;23.95;5.25;;;15.70;99.90;;;;;;5075982;28;20050;-58
2023/05/29 08:36:17;;;;;;;17.20;3.10;;;15.60;99.90;;;;;;5071274;28;20082;-57
2023/05/29 08:38:43;;;;;;;22.55;3.85;;;15.60;99.90;;;;;;5079684;28;20433;-57
2023/05/29 08:41:12;;;;;;;22.30;4.28;;;15.50;99.90;;;;;;5079184;28;20036;-58
2023/05/29 08:43:41;;;;;;;19.67;3.50;;;15.40;99.90;;;;;;5071078;28;20044;-58
2023/05/29 08:46:07;;;;;;;19.92;4.57;;;15.30;99.90;;;;;;5067347;28;20563;-57
2023/05/29 08:48:35;;;;;;;23.38;4.72;;;15.40;99.90;;;;;;5068765;28;20047;-58
2023/05/29 08:51:02;;;;;;;19.77;3.90;;;15.40;99.90;;;;;;5066338;28;20066;-58
2023/05/29 08:53:28;;;;;;;16.77;3.58;;;15.50;99.90;;;;;;5067974;28;20769;-58
2023/05/29 08:55:55;;;;;;;22.38;4.70;;;15.40;99.90;;;;;;5072231;28;20032;-58
2023/05/29 08:58:21;;;;;;;19.85;4.60;;;15.30;99.90;;;;;;5073724;28;20032;-58
2023/05/29 09:00:48;;;;;;;16.20;3.97;;;15.40;99.90;;;;;;5072964;28;20055;-57
2023/05/29 09:03:14;;;;;;;19.90;4.43;;;15.40;99.90;;;;;;5072722;28;20055;-57
2023/05/29 09:05:41;;;;;;;17.98;3.97;;;15.40;99.90;;;;;;5065626;28;20083;-57
2023/05/29 09:08:08;;;;;;;20.48;5.22;;;15.50;99.90;;;;;;5060255;28;20498;-57
2023/05/29 09:10:34;;;;;;;25.58;3.78;;;15.50;99.90;;;;;;5053781;28;20044;-58
2023/05/29 09:13:00;;;;;;;15.60;5.35;;;15.40;99.90;;;;;;5069685;28;20041;-57
2023/05/29 09:15:26;;;;;;;26.67;6.13;;;15.40;99.90;;;;;;5071177;28;20041;-57
2023/05/29 09:17:57;;;;;;;28.02;6.90;;;15.50;99.90;;;;;;5065299;28;20103;-57
2023/05/29 09:20:24;;;;;;;20.40;4.85;;;15.80;99.90;;;;;;5069050;28;20072;-57
2023/05/29 09:22:54;;;;;;;20.58;5.43;;;15.80;99.90;;;;;;5064171;28;20087;-58
2023/05/29 09:25:24;;;;;;;25.85;5.30;;;15.90;99.90;;;;;;5076909;28;20060;-56
2023/05/29 09:27:58;;;;;;;22.00;4.05;;;16.10;99.90;;;;;;5081259;28;20417;-57
2023/05/29 09:30:46;;;;;;;21.95;4.38;;;16.10;99.90;;;;;;5075013;28;20363;-56
2023/05/29 09:33:13;;;;;;;18.27;3.72;;;16.30;99.90;;;;;;5064275;28;20036;-57
2023/05/29 09:35:46;;;;;;;24.10;4.15;;;16.40;99.90;;;;;;5072138;28;20510;-57
2023/05/29 09:38:15;;;;;;;20.08;4.50;;;16.50;99.90;;;;;;5067683;28;20436;-58
2023/05/29 09:40:41;;;;;;;;;;;16.60;99.90;;;;;;5078482;28;20040;-57
2023/05/29 09:43:16;;;;;;;19.27;3.47;;;16.60;99.90;;;;;;5071066;28;19916;-57
2023/05/29 09:45:46;;;;;;;24.02;3.97;;;16.60;99.90;;;;;;5067830;28;20052;-57
2023/05/29 09:48:14;;;;;;;17.67;4.07;;;16.60;99.90;;;;;;5068327;28;22019;-57
2023/05/29 09:50:39;;;;;;;19.35;3.65;;;16.70;99.90;;;;;;5063559;28;20048;-56
2023/05/29 09:53:25;;;;;;;21.70;4.03;;;16.80;99.90;;;;;;5063652;28;20041;-57
2023/05/29 09:55:54;;;;;;;26.58;4.82;;;16.70;99.90;;;;;;5072044;28;20375;-57
2023/05/29 09:58:20;;;;;;;18.52;4.40;;;17.00;99.90;;;;;;5072501;28;20046;-57
2023/05/29 10:00:47;;;;;;;20.33;3.42;;;17.10;99.90;;;;;;5071689;28;20052;-57
2023/05/29 10:03:13;;;;;;;14.77;3.80;;;17.30;99.90;;;;;;5064424;28;20040;-57
2023/05/29 10:05:43;;;;;;;18.02;3.85;;;17.50;99.90;;;;;;5072212;28;20046;-57
2023/05/29 10:08:14;;;;;;;15.93;3.55;;;17.70;99.90;;;;;;5071031;28;20028;-56
2023/05/29 10:11:09;;;;;;;18.63;5.07;;;17.80;99.90;;;;;;5071819;28;20036;-57
2023/05/29 10:13:41;;;;;;;17.30;4.55;;;17.80;99.90;;;;;;5041607;28;20104;-58
2023/05/29 10:16:12;;;;;;;21.05;4.55;;;17.80;99.90;;;;;;5036309;28;20534;-57
2023/05/29 10:18:39;;;;;;;19.85;4.00;;;17.80;99.90;;;;;;5042425;28;20072;-58
2023/05/29 10:21:07;;;;;;;25.70;4.45;;;17.90;99.90;;;;;;5049255;28;20040;-57
2023/05/29 10:23:35;;;;;;;14.17;3.33;;;17.80;99.90;;;;;;5049764;28;20487;-56
2023/05/29 10:26:13;;;;;;;18.73;4.60;;;17.90;99.90;;;;;;5040973;28;20098;-57
2023/05/29 10:28:44;;;;;;;17.17;4.03;;;17.80;99.90;;;;;;5040930;28;20047;-56
2023/05/29 10:31:24;;;;;;;15.23;3.47;;;17.80;99.90;;;;;;5040680;28;20049;-56
2023/05/29 10:33:56;;;;;;;15.43;3.75;;;17.80;99.90;;;;;;5044558;28;21143;-56
2023/05/29 10:36:26;;;;;;;15.57;4.07;;;17.90;99.90;;;;;;5044178;28;20033;-56
2023/05/29 10:38:52;;;;;;;25.88;5.03;;;18.00;99.90;;;;;;5049490;28;20080;-55
2023/05/29 10:41:26;;;;;;;18.27;3.63;;;18.10;99.90;;;;;;5049832;28;20433;-56
2023/05/29 10:44:01;;;;;;;19.75;3.95;;;18.30;99.90;;;;;;5049433;28;20080;-56
2023/05/29 10:46:46;;;;;;;16.60;3.90;;;18.30;99.90;;;;;;5048976;28;20060;-56
2023/05/29 10:49:19;;;;;;;16.75;4.10;;;18.30;99.90;;;;;;5048447;28;20045;-57
2023/05/29 10:51:45;;;;;;;16.08;4.45;;;18.40;99.90;;;;;;5070814;28;20040;-56
2023/05/29 10:54:11;;;;;;;16.45;3.63;;;18.50;99.90;;;;;;5065533;28;20037;-57
2023/05/29 10:56:37;;;;;;;17.15;3.97;;;18.70;99.90;;;;;;5067381;28;20051;-57
2023/05/29 10:59:02;;;;;;;18.42;3.90;;;18.70;99.90;;;;;;5057771;28;20033;-56
2023/05/29 11:01:30;;;;;;;15.13;4.20;;;18.60;99.90;;;;;;5071714;28;20043;-56
2023/05/29 11:04:17;;;;;;;11.15;3.38;;;18.70;99.90;;;;;;5098889;28;20135;-56
2023/05/29 11:06:43;;;;;;;19.50;3.70;;;18.80;99.90;;;;;;5062509;28;20037;-56
2023/05/29 11:09:28;;;;;;;18.13;4.90;;;18.40;99.90;;;;;;5075676;28;20094;-58
2023/05/29 11:12:25;;;;;;;10.80;3.38;;;18.70;99.90;;;;;;5075301;28;20649;-57
2023/05/29 11:15:13;;;;;;;21.58;3.60;;;18.90;99.90;;;;;;5070621;28;20380;-59
2023/05/29 11:17:39;;;;;;;20.83;3.70;;;19.00;99.90;;;;;;5068766;28;20032;-56
2023/05/29 11:20:07;;;;;;;14.40;3.10;;;19.00;99.90;;;;;;5075441;28;20398;-56
2023/05/29 11:22:59;;;;;;;14.27;3.47;;;18.80;99.90;;;;;;5075356;28;20074;-58
2023/05/29 11:25:25;;;;;;;19.63;3.47;;;18.70;99.90;;;;;;5045996;28;20049;-58
2023/05/29 11:27:54;;;;;;;13.65;4.13;;;18.70;99.90;;;;;;5046043;28;20052;-56
2023/05/29 11:30:20;;;;;;;16.25;3.30;;;18.80;99.90;;;;;;5063158;28;20100;-56
2023/05/29 11:32:47;;;;;;;17.23;3.50;;;18.80;99.90;;;;;;5052354;28;20048;-57
2023/05/29 11:35:14;;;;;;;18.40;4.05;;;18.80;99.90;;;;;;5046355;28;20051;-57
2023/05/29 11:37:43;;;;;;;16.23;3.10;;;18.60;99.90;;;;;;5048281;28;20060;-57
2023/05/29 11:40:09;;;;;;;12.63;3.75;;;18.60;99.90;;;;;;5051780;28;20047;-57
2023/05/29 11:42:35;;;;;;;16.08;3.78;;;18.60;99.90;;;;;;5052393;28;20136;-57
2023/05/29 11:45:19;;;;;;;20.52;4.30;;;18.90;99.90;;;;;;5047372;28;20059;-58
2023/05/29 11:47:56;;;;;;;15.98;3.55;;;18.70;99.90;;;;;;5042522;28;20128;-58
2023/05/29 11:50:30;;;;;;;16.15;3.95;;;19.20;99.90;;;;;;5043532;28;20045;-57
2023/05/29 11:52:57;;;;;;;15.75;3.22;;;19.20;99.90;;;;;;5040248;28;20051;-58
2023/05/29 11:55:24;;;;;;;17.92;3.53;;;19.20;99.90;;;;;;5038027;28;20116;-58
2023/05/29 11:57:55;;;;;;;17.48;3.50;;;19.40;99.90;;;;;;5045513;28;21000;-57
2023/05/29 12:00:21;;;;;;;20.05;3.63;;;19.40;99.90;;;;;;5051669;28;20040;-57
2023/05/29 12:02:48;;;;;;;16.67;3.38;;;19.20;99.90;;;;;;5055502;28;20109;-57
2023/05/29 12:05:15;;;;;;;20.85;3.72;;;19.20;99.90;;;;;;5069720;28;20033;-57
2023/05/29 12:07:53;;;;;;;17.87;3.60;;;18.90;99.90;;;;;;5067171;28;20441;-57
2023/05/29 12:10:21;;;;;;;15.65;3.53;;;19.00;99.90;;;;;;5104456;28;20040;-57
2023/05/29 12:12:54;;;;;;;20.95;4.93;;;18.70;99.90;;;;;;5074116;28;20044;-56
2023/05/29 12:15:21;;;;;;;18.08;3.88;;;18.70;99.90;;;;;;5063651;28;20068;-57
2023/05/29 12:17:51;;;;;;;15.25;3.72;;;19.00;99.90;;;;;;5070311;28;20040;-56
2023/05/29 12:20:17;;;;;;;19.27;4.35;;;19.10;99.90;;;;;;5074093;28;20043;-57
2023/05/29 12:22:45;;;;;;;13.93;3.38;;;18.90;99.90;;;;;;5072961;28;20128;-57
2023/05/29 12:25:21;;;;;;;11.90;2.92;;;18.90;99.90;;;;;;5099689;28;20462;-58
2023/05/29 12:27:48;;;;;;;18.60;4.55;;;18.70;99.90;;;;;;5066791;28;20120;-57
2023/05/29 12:30:19;;;;;;;14.73;3.35;;;18.70;99.90;;;;;;5106502;28;20447;-57
2023/05/29 12:32:48;;;;;;;17.52;3.97;;;18.90;99.90;;;;;;5069300;28;20029;-57
2023/05/29 12:35:28;;;;;;;12.63;2.70;;;19.00;99.90;;;;;;5069034;28;20032;-57
2023/05/29 12:37:55;;;;;;;11.65;3.17;;;19.10;99.90;;;;;;5090843;28;20032;-57
2023/05/29 12:40:25;;;;;;;19.33;3.60;;;19.10;99.90;;;;;;5093057;28;20036;-57